Bookmark and Share
Track history (hours):
 

MSC Fabiola

Last reported at 2014-Apr-14 08:33 UTC. Time now 2014-Apr-19 17:16 UTC.
Position N 01°11' E 103°40'.

Length 366 m; draft 14.5 m.

Type: Ship. MMSI: 636092019.

NotesDate/timePositionNaut miles runAvg speedWind from/ knotsBaromVisibWave heightAir tempDewpointWater temp
2014-Apr-14 08:33N 01°11' E 103°40'8 7.9
2014-Apr-14 07:32N 01°15' E 103°46'1 1.4
2014-Apr-14 06:32N 01°16' E 103°46'0 0.0
2014-Apr-13 22:32N 01°16' E 103°46'0 0.0
2014-Apr-13 21:26N 01°16' E 103°46'0 0.0
2014-Apr-13 19:08N 01°16' E 103°46'0 0.0
2014-Apr-13 18:14N 01°16' E 103°46'0 0.0
2014-Apr-13 14:26N 01°16' E 103°46'0 0.0
2014-Apr-13 13:29N 01°16' E 103°46'0 0.0
2014-Apr-13 12:17N 01°16' E 103°46'0 0.0
2014-Apr-13 11:17N 01°16' E 103°46'0 0.0
2014-Apr-13 10:32N 01°16' E 103°46'0 0.0
2014-Apr-13 08:26N 01°16' E 103°46'0 0.0
2014-Apr-13 07:32N 01°16' E 103°46'0 0.0
2014-Apr-13 06:26N 01°16' E 103°46'0 0.0
2014-Apr-13 03:14N 01°16' E 103°46'0 0.0
2014-Apr-13 02:32N 01°16' E 103°46'0 0.2
2014-Apr-13 01:28N 01°16' E 103°45'2 2.1
2014-Apr-13 00:32N 01°15' E 103°47'7 6.9
2014-Apr-12 23:34N 01°13' E 103°53'  
2014-Apr-09 08:32N 22°18' E 114°06'1110.8
2014-Apr-09 07:33N 22°22' E 113°55'6 5.9
2014-Apr-09 06:33N 22°28' E 113°53'0 0.0
2014-Apr-09 05:30N 22°28' E 113°53'0 0.0
2014-Apr-09 04:28N 22°28' E 113°53'0 0.0
2014-Apr-09 03:28N 22°28' E 113°53'0 0.0
2014-Apr-09 02:28N 22°28' E 113°53'0 0.0
2014-Apr-09 01:28N 22°28' E 113°53'0 0.0
2014-Apr-09 00:16N 22°28' E 113°53'0 0.0
2014-Apr-08 23:22N 22°28' E 113°53'0 0.1
2014-Apr-08 22:28N 22°28' E 113°53'0 0.1
2014-Apr-08 21:28N 22°28' E 113°53'0 0.0
2014-Apr-08 20:28N 22°28' E 113°53'0 0.0
2014-Apr-08 19:10N 22°28' E 113°53'0 0.0
2014-Apr-08 18:28N 22°28' E 113°53'0 0.0
2014-Apr-08 17:28N 22°28' E 113°53'0 0.0
2014-Apr-08 16:22N 22°28' E 113°53'0 0.0
2014-Apr-08 15:10N 22°28' E 113°53'0 0.0
2014-Apr-08 14:28N 22°28' E 113°53'0 0.0
2014-Apr-08 13:22N 22°28' E 113°53'0 0.0
2014-Apr-08 12:28N 22°28' E 113°53'0 0.0
2014-Apr-08 11:16N 22°28' E 113°53'0 0.0
2014-Apr-08 10:28N 22°28' E 113°53'3 3.1
2014-Apr-08 09:34N 22°25' E 113°53'1210.5
2014-Apr-08 08:26N 22°20' E 114°05'1210.3
2014-Apr-08 07:17N 22°10' E 114°12'228 4.9
2014-Apr-06 08:26N 23°40' E 117°60'2620.1
2014-Apr-06 07:10N 24°00' E 118°17'1118.2
2014-Apr-06 06:34N 24°11' E 118°18'1615.7
2014-Apr-06 05:34N 24°23' E 118°07'6 5.8
2014-Apr-06 04:29N 24°27' E 118°01'0 0.0
2014-Apr-06 03:29N 24°27' E 118°01'0 0.0
2014-Apr-06 02:29N 24°27' E 118°01'0 0.0
2014-Apr-06 01:23N 24°27' E 118°01'0 0.0
2014-Apr-05 21:17N 24°27' E 118°01'0 0.0
2014-Apr-05 19:29N 24°27' E 118°01'0 0.0
2014-Apr-05 18:29N 24°27' E 118°01'0 0.1
2014-Apr-05 17:33N 24°27' E 118°01'9 9.1
2014-Apr-05 16:33N 24°21' E 118°09'7 6.9
2014-Apr-05 15:33N 24°16' E 118°14'7 6.9
2014-Apr-05 14:33N 24°14' E 118°21'1413.2
2014-Apr-05 13:32N 24°17' E 118°36'1818.2
2014-Apr-05 12:33N 24°22' E 118°55'1918.6
2014-Apr-05 11:32N 24°27' E 119°15'1717.5
2014-Apr-05 10:33N 24°37' E 119°31'1918.4
2014-Apr-05 09:33N 24°49' E 119°46'1918.3
2014-Apr-05 08:31N 25°02' E 120°01'26420.2
2014-Apr-04 19:26N 28°44' E 122°40'3919.5
2014-Apr-04 17:25N 29°22' E 122°53'4519.2
2014-Apr-04 15:05N 30°06' E 122°59'2817.1
2014-Apr-04 13:28N 30°30' E 122°42'1617.7
2014-Apr-04 12:33N 30°32' E 122°23'1514.8
2014-Apr-04 11:32N 30°36' E 122°06'  

Dump ship's entire track history

sailing weather and tide predictions

MSC Fabiola — A8VL5 — position and weather